sensor_id;sensor_type;location;lat;lon;timestamp;P1;durP1;ratioP1;P2;durP2;ratioP2
14849;SDS011;7517;48.400;11.770;2023-12-07T00:00:54;8.00;;;7.03;;
14849;SDS011;7517;48.400;11.770;2023-12-07T00:03:21;8.10;;;7.20;;
14849;SDS011;7517;48.400;11.770;2023-12-07T00:05:48;7.77;;;6.77;;
14849;SDS011;7517;48.400;11.770;2023-12-07T00:08:17;7.90;;;6.87;;
14849;SDS011;7517;48.400;11.770;2023-12-07T00:10:44;7.83;;;6.43;;
14849;SDS011;7517;48.400;11.770;2023-12-07T00:13:11;9.33;;;6.90;;
14849;SDS011;7517;48.400;11.770;2023-12-07T00:15:39;9.50;;;7.13;;
14849;SDS011;7517;48.400;11.770;2023-12-07T00:18:06;9.60;;;7.60;;
14849;SDS011;7517;48.400;11.770;2023-12-07T00:20:33;8.57;;;7.67;;
14849;SDS011;7517;48.400;11.770;2023-12-07T00:23:01;8.40;;;7.37;;
14849;SDS011;7517;48.400;11.770;2023-12-07T00:25:30;9.33;;;8.07;;
14849;SDS011;7517;48.400;11.770;2023-12-07T00:27:57;10.33;;;8.10;;
14849;SDS011;7517;48.400;11.770;2023-12-07T00:30:24;9.17;;;7.73;;
14849;SDS011;7517;48.400;11.770;2023-12-07T00:32:52;9.77;;;8.57;;
14849;SDS011;7517;48.400;11.770;2023-12-07T00:35:19;9.40;;;8.30;;
14849;SDS011;7517;48.400;11.770;2023-12-07T00:37:47;11.00;;;8.60;;
14849;SDS011;7517;48.400;11.770;2023-12-07T00:40:15;9.70;;;8.50;;
14849;SDS011;7517;48.400;11.770;2023-12-07T00:42:44;9.93;;;8.40;;
14849;SDS011;7517;48.400;11.770;2023-12-07T00:45:11;10.23;;;8.87;;
14849;SDS011;7517;48.400;11.770;2023-12-07T00:47:39;11.57;;;8.43;;
14849;SDS011;7517;48.400;11.770;2023-12-07T00:50:07;10.57;;;8.60;;
14849;SDS011;7517;48.400;11.770;2023-12-07T00:52:38;9.43;;;8.27;;
14849;SDS011;7517;48.400;11.770;2023-12-07T00:55:05;10.63;;;8.57;;
14849;SDS011;7517;48.400;11.770;2023-12-07T00:57:33;9.20;;;7.63;;
14849;SDS011;7517;48.400;11.770;2023-12-07T01:00:01;11.30;;;8.57;;
14849;SDS011;7517;48.400;11.770;2023-12-07T01:02:30;10.27;;;8.67;;
14849;SDS011;7517;48.400;11.770;2023-12-07T01:04:57;10.53;;;8.20;;
14849;SDS011;7517;48.400;11.770;2023-12-07T01:07:24;10.67;;;8.73;;
14849;SDS011;7517;48.400;11.770;2023-12-07T01:09:52;11.43;;;8.87;;
14849;SDS011;7517;48.400;11.770;2023-12-07T01:12:19;9.73;;;8.23;;
14849;SDS011;7517;48.400;11.770;2023-12-07T01:14:46;9.63;;;7.87;;
14849;SDS011;7517;48.400;11.770;2023-12-07T01:17:15;11.17;;;8.30;;
14849;SDS011;7517;48.400;11.770;2023-12-07T01:19:43;11.87;;;9.57;;
14849;SDS011;7517;48.400;11.770;2023-12-07T01:22:10;11.57;;;9.30;;
14849;SDS011;7517;48.400;11.770;2023-12-07T01:24:37;10.83;;;9.60;;
14849;SDS011;7517;48.400;11.770;2023-12-07T01:27:04;10.03;;;8.83;;
14849;SDS011;7517;48.400;11.770;2023-12-07T01:29:31;10.93;;;9.00;;
14849;SDS011;7517;48.400;11.770;2023-12-07T01:31:59;12.13;;;8.70;;
14849;SDS011;7517;48.400;11.770;2023-12-07T01:34:27;10.63;;;8.50;;
14849;SDS011;7517;48.400;11.770;2023-12-07T01:36:55;10.50;;;8.80;;
14849;SDS011;7517;48.400;11.770;2023-12-07T01:39:22;10.33;;;8.47;;
14849;SDS011;7517;48.400;11.770;2023-12-07T01:41:50;10.37;;;8.33;;
14849;SDS011;7517;48.400;11.770;2023-12-07T01:44:18;11.43;;;8.43;;
14849;SDS011;7517;48.400;11.770;2023-12-07T01:46:45;10.90;;;9.03;;
14849;SDS011;7517;48.400;11.770;2023-12-07T01:49:12;10.97;;;8.47;;
14849;SDS011;7517;48.400;11.770;2023-12-07T01:51:41;11.13;;;8.67;;
14849;SDS011;7517;48.400;11.770;2023-12-07T01:54:09;10.43;;;8.63;;
14849;SDS011;7517;48.400;11.770;2023-12-07T01:56:36;11.17;;;9.07;;
14849;SDS011;7517;48.400;11.770;2023-12-07T01:59:03;11.90;;;8.80;;
14849;SDS011;7517;48.400;11.770;2023-12-07T02:01:31;9.17;;;7.83;;
14849;SDS011;7517;48.400;11.770;2023-12-07T02:03:58;10.13;;;8.53;;
14849;SDS011;7517;48.400;11.770;2023-12-07T02:06:26;10.63;;;8.23;;
14849;SDS011;7517;48.400;11.770;2023-12-07T02:08:55;10.20;;;8.57;;
14849;SDS011;7517;48.400;11.770;2023-12-07T02:11:22;11.57;;;8.97;;
14849;SDS011;7517;48.400;11.770;2023-12-07T02:13:50;10.90;;;8.90;;
14849;SDS011;7517;48.400;11.770;2023-12-07T02:16:21;10.20;;;9.07;;
14849;SDS011;7517;48.400;11.770;2023-12-07T02:18:59;12.73;;;8.97;;
14849;SDS011;7517;48.400;11.770;2023-12-07T02:21:48;12.27;;;8.80;;
14849;SDS011;7517;48.400;11.770;2023-12-07T02:24:23;12.10;;;8.70;;
14849;SDS011;7517;48.400;11.770;2023-12-07T02:26:55;10.00;;;7.97;;
14849;SDS011;7517;48.400;11.770;2023-12-07T02:29:22;9.87;;;8.63;;
14849;SDS011;7517;48.400;11.770;2023-12-07T02:31:50;10.83;;;8.53;;
14849;SDS011;7517;48.400;11.770;2023-12-07T02:34:17;11.47;;;9.10;;
14849;SDS011;7517;48.400;11.770;2023-12-07T02:36:45;11.03;;;9.20;;
14849;SDS011;7517;48.400;11.770;2023-12-07T02:39:18;10.83;;;8.43;;
14849;SDS011;7517;48.400;11.770;2023-12-07T02:41:48;12.27;;;9.10;;
14849;SDS011;7517;48.400;11.770;2023-12-07T02:44:18;10.87;;;7.80;;
14849;SDS011;7517;48.400;11.770;2023-12-07T02:46:45;13.20;;;9.23;;
14849;SDS011;7517;48.400;11.770;2023-12-07T02:49:12;13.27;;;9.47;;
14849;SDS011;7517;48.400;11.770;2023-12-07T02:51:40;11.77;;;8.50;;
14849;SDS011;7517;48.400;11.770;2023-12-07T02:54:07;11.13;;;8.87;;
14849;SDS011;7517;48.400;11.770;2023-12-07T02:56:34;13.87;;;9.80;;
14849;SDS011;7517;48.400;11.770;2023-12-07T02:59:01;11.73;;;9.27;;
14849;SDS011;7517;48.400;11.770;2023-12-07T03:01:30;10.77;;;8.90;;
14849;SDS011;7517;48.400;11.770;2023-12-07T03:03:57;10.23;;;8.90;;
14849;SDS011;7517;48.400;11.770;2023-12-07T03:06:25;11.07;;;8.73;;
14849;SDS011;7517;48.400;11.770;2023-12-07T03:08:52;11.37;;;9.17;;
14849;SDS011;7517;48.400;11.770;2023-12-07T03:11:21;11.00;;;8.87;;
14849;SDS011;7517;48.400;11.770;2023-12-07T03:13:49;12.80;;;9.10;;
14849;SDS011;7517;48.400;11.770;2023-12-07T03:16:17;10.77;;;8.70;;
14849;SDS011;7517;48.400;11.770;2023-12-07T03:18:45;10.73;;;8.57;;
14849;SDS011;7517;48.400;11.770;2023-12-07T03:21:12;11.40;;;9.00;;
14849;SDS011;7517;48.400;11.770;2023-12-07T03:23:40;11.87;;;8.77;;
14849;SDS011;7517;48.400;11.770;2023-12-07T03:26:07;9.73;;;8.50;;
14849;SDS011;7517;48.400;11.770;2023-12-07T03:28:35;9.80;;;7.53;;
14849;SDS011;7517;48.400;11.770;2023-12-07T03:31:02;11.83;;;9.00;;
14849;SDS011;7517;48.400;11.770;2023-12-07T03:33:30;10.63;;;8.47;;
14849;SDS011;7517;48.400;11.770;2023-12-07T03:35:59;10.23;;;8.00;;
14849;SDS011;7517;48.400;11.770;2023-12-07T03:38:27;10.63;;;8.77;;
14849;SDS011;7517;48.400;11.770;2023-12-07T03:40:54;10.00;;;8.53;;
14849;SDS011;7517;48.400;11.770;2023-12-07T03:43:21;10.73;;;8.10;;
14849;SDS011;7517;48.400;11.770;2023-12-07T03:45:49;10.73;;;8.50;;
14849;SDS011;7517;48.400;11.770;2023-12-07T03:48:17;10.77;;;8.90;;
14849;SDS011;7517;48.400;11.770;2023-12-07T03:50:44;9.73;;;8.37;;
14849;SDS011;7517;48.400;11.770;2023-12-07T03:53:13;10.90;;;8.27;;
14849;SDS011;7517;48.400;11.770;2023-12-07T03:55:41;10.37;;;8.77;;
14849;SDS011;7517;48.400;11.770;2023-12-07T03:58:08;12.17;;;9.37;;
14849;SDS011;7517;48.400;11.770;2023-12-07T04:00:35;10.50;;;8.87;;
14849;SDS011;7517;48.400;11.770;2023-12-07T04:03:02;9.93;;;8.30;;
14849;SDS011;7517;48.400;11.770;2023-12-07T04:05:30;10.37;;;8.97;;
14849;SDS011;7517;48.400;11.770;2023-12-07T04:07:57;10.37;;;8.17;;
14849;SDS011;7517;48.400;11.770;2023-12-07T04:10:26;9.67;;;7.80;;
14849;SDS011;7517;48.400;11.770;2023-12-07T04:12:53;10.57;;;8.67;;
14849;SDS011;7517;48.400;11.770;2023-12-07T04:15:24;9.20;;;8.17;;
14849;SDS011;7517;48.400;11.770;2023-12-07T04:17:51;10.93;;;8.90;;
14849;SDS011;7517;48.400;11.770;2023-12-07T04:20:19;9.97;;;8.50;;
14849;SDS011;7517;48.400;11.770;2023-12-07T04:22:46;10.23;;;8.67;;
14849;SDS011;7517;48.400;11.770;2023-12-07T04:25:14;11.13;;;8.87;;
14849;SDS011;7517;48.400;11.770;2023-12-07T04:27:45;10.37;;;8.20;;
14849;SDS011;7517;48.400;11.770;2023-12-07T04:30:12;11.70;;;8.60;;
14849;SDS011;7517;48.400;11.770;2023-12-07T04:32:40;10.67;;;8.50;;
14849;SDS011;7517;48.400;11.770;2023-12-07T04:35:07;11.97;;;8.57;;
14849;SDS011;7517;48.400;11.770;2023-12-07T04:37:34;11.93;;;9.20;;
14849;SDS011;7517;48.400;11.770;2023-12-07T04:40:02;8.93;;;8.00;;
14849;SDS011;7517;48.400;11.770;2023-12-07T04:42:31;10.47;;;7.97;;
14849;SDS011;7517;48.400;11.770;2023-12-07T04:45:00;11.00;;;8.50;;
14849;SDS011;7517;48.400;11.770;2023-12-07T04:47:28;12.20;;;9.37;;
14849;SDS011;7517;48.400;11.770;2023-12-07T04:49:55;10.50;;;8.63;;
14849;SDS011;7517;48.400;11.770;2023-12-07T04:52:22;11.37;;;8.77;;
14849;SDS011;7517;48.400;11.770;2023-12-07T04:54:50;16.90;;;10.63;;
14849;SDS011;7517;48.400;11.770;2023-12-07T04:57:17;13.27;;;10.37;;
14849;SDS011;7517;48.400;11.770;2023-12-07T04:59:44;15.07;;;10.17;;
14849;SDS011;7517;48.400;11.770;2023-12-07T05:02:14;12.03;;;9.33;;
14849;SDS011;7517;48.400;11.770;2023-12-07T05:04:41;13.60;;;9.57;;
14849;SDS011;7517;48.400;11.770;2023-12-07T05:07:10;11.83;;;9.53;;
14849;SDS011;7517;48.400;11.770;2023-12-07T05:09:38;12.27;;;9.23;;
14849;SDS011;7517;48.400;11.770;2023-12-07T05:12:05;13.33;;;9.53;;
14849;SDS011;7517;48.400;11.770;2023-12-07T05:14:33;11.83;;;8.90;;
14849;SDS011;7517;48.400;11.770;2023-12-07T05:17:02;13.33;;;10.50;;
14849;SDS011;7517;48.400;11.770;2023-12-07T05:19:31;13.10;;;9.47;;
14849;SDS011;7517;48.400;11.770;2023-12-07T05:21:59;11.77;;;9.47;;
14849;SDS011;7517;48.400;11.770;2023-12-07T05:24:27;12.73;;;9.80;;
14849;SDS011;7517;48.400;11.770;2023-12-07T05:26:55;11.90;;;9.07;;
14849;SDS011;7517;48.400;11.770;2023-12-07T05:29:22;12.00;;;9.43;;
14849;SDS011;7517;48.400;11.770;2023-12-07T05:31:49;13.20;;;9.67;;
14849;SDS011;7517;48.400;11.770;2023-12-07T05:34:19;9.97;;;8.37;;
14849;SDS011;7517;48.400;11.770;2023-12-07T05:36:50;10.57;;;8.60;;
14849;SDS011;7517;48.400;11.770;2023-12-07T05:39:19;12.37;;;9.63;;
14849;SDS011;7517;48.400;11.770;2023-12-07T05:41:46;12.27;;;9.27;;
14849;SDS011;7517;48.400;11.770;2023-12-07T05:44:15;11.63;;;9.47;;
14849;SDS011;7517;48.400;11.770;2023-12-07T05:46:46;10.97;;;9.00;;
14849;SDS011;7517;48.400;11.770;2023-12-07T05:49:14;12.53;;;9.33;;
14849;SDS011;7517;48.400;11.770;2023-12-07T05:51:43;10.87;;;9.47;;
14849;SDS011;7517;48.400;11.770;2023-12-07T05:54:12;11.93;;;9.33;;
14849;SDS011;7517;48.400;11.770;2023-12-07T05:56:39;12.53;;;10.43;;
14849;SDS011;7517;48.400;11.770;2023-12-07T05:59:08;14.00;;;10.60;;
14849;SDS011;7517;48.400;11.770;2023-12-07T06:01:35;15.93;;;10.20;;
14849;SDS011;7517;48.400;11.770;2023-12-07T06:04:02;14.77;;;10.87;;
14849;SDS011;7517;48.400;11.770;2023-12-07T06:06:29;14.07;;;10.13;;
14849;SDS011;7517;48.400;11.770;2023-12-07T06:08:56;14.40;;;10.87;;
14849;SDS011;7517;48.400;11.770;2023-12-07T06:11:25;11.47;;;8.87;;
14849;SDS011;7517;48.400;11.770;2023-12-07T06:13:52;12.33;;;9.43;;
14849;SDS011;7517;48.400;11.770;2023-12-07T06:16:20;12.13;;;10.40;;
14849;SDS011;7517;48.400;11.770;2023-12-07T06:18:47;12.40;;;9.97;;
14849;SDS011;7517;48.400;11.770;2023-12-07T06:21:14;13.00;;;10.43;;
14849;SDS011;7517;48.400;11.770;2023-12-07T06:23:41;12.60;;;9.63;;
14849;SDS011;7517;48.400;11.770;2023-12-07T06:26:11;12.40;;;9.53;;
14849;SDS011;7517;48.400;11.770;2023-12-07T06:28:41;15.97;;;10.30;;
14849;SDS011;7517;48.400;11.770;2023-12-07T06:31:11;12.83;;;9.60;;
14849;SDS011;7517;48.400;11.770;2023-12-07T06:33:40;13.73;;;9.63;;
14849;SDS011;7517;48.400;11.770;2023-12-07T06:36:10;12.93;;;10.13;;
14849;SDS011;7517;48.400;11.770;2023-12-07T06:38:44;12.27;;;10.10;;
14849;SDS011;7517;48.400;11.770;2023-12-07T06:41:11;14.87;;;9.97;;
14849;SDS011;7517;48.400;11.770;2023-12-07T06:43:38;11.20;;;8.80;;
14849;SDS011;7517;48.400;11.770;2023-12-07T06:46:07;13.40;;;10.00;;
14849;SDS011;7517;48.400;11.770;2023-12-07T06:48:34;10.73;;;8.73;;
14849;SDS011;7517;48.400;11.770;2023-12-07T06:51:04;11.77;;;9.30;;
14849;SDS011;7517;48.400;11.770;2023-12-07T06:53:31;15.70;;;10.47;;
14849;SDS011;7517;48.400;11.770;2023-12-07T06:55:59;11.40;;;9.10;;
14849;SDS011;7517;48.400;11.770;2023-12-07T06:58:26;11.90;;;9.60;;
14849;SDS011;7517;48.400;11.770;2023-12-07T07:00:53;12.37;;;9.40;;
14849;SDS011;7517;48.400;11.770;2023-12-07T07:03:21;10.80;;;8.93;;
14849;SDS011;7517;48.400;11.770;2023-12-07T07:05:49;12.37;;;8.90;;
14849;SDS011;7517;48.400;11.770;2023-12-07T07:08:17;12.70;;;9.83;;
14849;SDS011;7517;48.400;11.770;2023-12-07T07:10:44;12.07;;;9.73;;
14849;SDS011;7517;48.400;11.770;2023-12-07T07:13:12;11.20;;;8.97;;
14849;SDS011;7517;48.400;11.770;2023-12-07T07:15:41;12.70;;;9.73;;
14849;SDS011;7517;48.400;11.770;2023-12-07T07:18:09;13.07;;;9.63;;
14849;SDS011;7517;48.400;11.770;2023-12-07T07:20:38;13.00;;;9.63;;
14849;SDS011;7517;48.400;11.770;2023-12-07T07:23:05;13.40;;;9.63;;
14849;SDS011;7517;48.400;11.770;2023-12-07T07:25:34;11.00;;;8.20;;
14849;SDS011;7517;48.400;11.770;2023-12-07T07:28:01;12.63;;;9.20;;
14849;SDS011;7517;48.400;11.770;2023-12-07T07:30:29;11.70;;;9.13;;
14849;SDS011;7517;48.400;11.770;2023-12-07T07:32:56;13.30;;;9.73;;
14849;SDS011;7517;48.400;11.770;2023-12-07T07:35:23;11.67;;;8.97;;
14849;SDS011;7517;48.400;11.770;2023-12-07T07:37:54;12.17;;;9.73;;
14849;SDS011;7517;48.400;11.770;2023-12-07T07:40:21;13.00;;;9.17;;
14849;SDS011;7517;48.400;11.770;2023-12-07T07:42:49;11.40;;;8.97;;
14849;SDS011;7517;48.400;11.770;2023-12-07T07:45:17;12.40;;;9.97;;
14849;SDS011;7517;48.400;11.770;2023-12-07T07:47:44;13.27;;;10.13;;
14849;SDS011;7517;48.400;11.770;2023-12-07T07:50:11;12.87;;;9.53;;
14849;SDS011;7517;48.400;11.770;2023-12-07T07:52:38;13.37;;;10.33;;
14849;SDS011;7517;48.400;11.770;2023-12-07T07:55:10;11.83;;;9.37;;
14849;SDS011;7517;48.400;11.770;2023-12-07T07:57:37;12.43;;;9.77;;
14849;SDS011;7517;48.400;11.770;2023-12-07T08:00:05;12.77;;;9.70;;
14849;SDS011;7517;48.400;11.770;2023-12-07T08:02:34;11.50;;;9.53;;
14849;SDS011;7517;48.400;11.770;2023-12-07T08:05:01;12.63;;;10.10;;
14849;SDS011;7517;48.400;11.770;2023-12-07T08:07:29;12.00;;;9.77;;
14849;SDS011;7517;48.400;11.770;2023-12-07T08:09:56;14.67;;;10.47;;
14849;SDS011;7517;48.400;11.770;2023-12-07T08:12:25;13.37;;;10.63;;
14849;SDS011;7517;48.400;11.770;2023-12-07T08:14:52;13.80;;;10.20;;
14849;SDS011;7517;48.400;11.770;2023-12-07T08:17:20;19.90;;;12.07;;
14849;SDS011;7517;48.400;11.770;2023-12-07T08:19:47;22.97;;;14.83;;
14849;SDS011;7517;48.400;11.770;2023-12-07T08:22:14;18.33;;;12.53;;
14849;SDS011;7517;48.400;11.770;2023-12-07T08:24:43;17.30;;;11.60;;
14849;SDS011;7517;48.400;11.770;2023-12-07T08:27:10;15.40;;;10.87;;
14849;SDS011;7517;48.400;11.770;2023-12-07T08:29:38;12.93;;;10.43;;
14849;SDS011;7517;48.400;11.770;2023-12-07T08:32:06;11.13;;;9.17;;
14849;SDS011;7517;48.400;11.770;2023-12-07T08:34:33;11.20;;;9.43;;
14849;SDS011;7517;48.400;11.770;2023-12-07T08:37:02;13.57;;;10.17;;
14849;SDS011;7517;48.400;11.770;2023-12-07T08:39:29;12.73;;;9.60;;
14849;SDS011;7517;48.400;11.770;2023-12-07T08:41:57;10.90;;;8.27;;
14849;SDS011;7517;48.400;11.770;2023-12-07T08:44:24;10.90;;;7.87;;
14849;SDS011;7517;48.400;11.770;2023-12-07T08:46:53;12.23;;;8.97;;
14849;SDS011;7517;48.400;11.770;2023-12-07T08:49:20;11.77;;;9.10;;
14849;SDS011;7517;48.400;11.770;2023-12-07T08:51:47;10.77;;;9.10;;
14849;SDS011;7517;48.400;11.770;2023-12-07T08:54:15;11.53;;;9.13;;
14849;SDS011;7517;48.400;11.770;2023-12-07T08:56:43;10.27;;;8.37;;
14849;SDS011;7517;48.400;11.770;2023-12-07T08:59:11;11.53;;;8.93;;
14849;SDS011;7517;48.400;11.770;2023-12-07T09:01:38;11.37;;;8.77;;
14849;SDS011;7517;48.400;11.770;2023-12-07T09:04:07;13.33;;;9.97;;
14849;SDS011;7517;48.400;11.770;2023-12-07T09:06:34;15.90;;;11.23;;
14849;SDS011;7517;48.400;11.770;2023-12-07T09:09:02;12.50;;;9.37;;
14849;SDS011;7517;48.400;11.770;2023-12-07T09:11:30;11.67;;;8.60;;
14849;SDS011;7517;48.400;11.770;2023-12-07T09:13:57;10.27;;;7.70;;
14849;SDS011;7517;48.400;11.770;2023-12-07T09:16:25;9.30;;;7.47;;
14849;SDS011;7517;48.400;11.770;2023-12-07T09:18:53;9.30;;;7.83;;
14849;SDS011;7517;48.400;11.770;2023-12-07T09:21:22;8.30;;;7.40;;
14849;SDS011;7517;48.400;11.770;2023-12-07T09:23:50;9.87;;;7.87;;
14849;SDS011;7517;48.400;11.770;2023-12-07T09:26:17;8.37;;;7.30;;
14849;SDS011;7517;48.400;11.770;2023-12-07T09:28:43;8.60;;;7.70;;
14849;SDS011;7517;48.400;11.770;2023-12-07T09:31:10;8.43;;;7.27;;
14849;SDS011;7517;48.400;11.770;2023-12-07T09:33:38;8.03;;;6.67;;
14849;SDS011;7517;48.400;11.770;2023-12-07T09:36:05;7.93;;;6.97;;
14849;SDS011;7517;48.400;11.770;2023-12-07T09:38:36;9.83;;;7.80;;
14849;SDS011;7517;48.400;11.770;2023-12-07T09:41:03;9.13;;;7.37;;
14849;SDS011;7517;48.400;11.770;2023-12-07T09:43:31;10.73;;;7.90;;
14849;SDS011;7517;48.400;11.770;2023-12-07T09:45:58;10.30;;;8.27;;
14849;SDS011;7517;48.400;11.770;2023-12-07T09:48:27;8.80;;;7.50;;
14849;SDS011;7517;48.400;11.770;2023-12-07T09:50:55;10.13;;;7.67;;
14849;SDS011;7517;48.400;11.770;2023-12-07T09:53:23;9.90;;;7.53;;
14849;SDS011;7517;48.400;11.770;2023-12-07T09:55:52;7.23;;;6.10;;
14849;SDS011;7517;48.400;11.770;2023-12-07T09:58:19;8.30;;;7.50;;
14849;SDS011;7517;48.400;11.770;2023-12-07T10:00:47;7.20;;;6.47;;
14849;SDS011;7517;48.400;11.770;2023-12-07T10:03:20;8.13;;;7.03;;
14849;SDS011;7517;48.400;11.770;2023-12-07T10:05:54;7.43;;;6.63;;
14849;SDS011;7517;48.400;11.770;2023-12-07T10:08:25;7.30;;;6.60;;
14849;SDS011;7517;48.400;11.770;2023-12-07T10:11:02;6.77;;;6.07;;
14849;SDS011;7517;48.400;11.770;2023-12-07T10:13:32;8.37;;;6.97;;
14849;SDS011;7517;48.400;11.770;2023-12-07T10:16:07;7.13;;;6.37;;
14849;SDS011;7517;48.400;11.770;2023-12-07T10:18:36;7.97;;;7.17;;
14849;SDS011;7517;48.400;11.770;2023-12-07T10:21:05;9.10;;;6.30;;
14849;SDS011;7517;48.400;11.770;2023-12-07T10:23:34;7.90;;;6.67;;
14849;SDS011;7517;48.400;11.770;2023-12-07T10:26:04;7.60;;;6.73;;
14849;SDS011;7517;48.400;11.770;2023-12-07T10:28:33;7.13;;;6.40;;
14849;SDS011;7517;48.400;11.770;2023-12-07T10:31:02;6.80;;;6.07;;
14849;SDS011;7517;48.400;11.770;2023-12-07T10:33:30;6.43;;;5.83;;
14849;SDS011;7517;48.400;11.770;2023-12-07T10:35:57;6.70;;;5.93;;
14849;SDS011;7517;48.400;11.770;2023-12-07T10:38:25;6.50;;;5.20;;
14849;SDS011;7517;48.400;11.770;2023-12-07T10:41:01;6.07;;;5.47;;
14849;SDS011;7517;48.400;11.770;2023-12-07T10:43:33;6.77;;;6.07;;
14849;SDS011;7517;48.400;11.770;2023-12-07T10:46:04;6.77;;;6.13;;
14849;SDS011;7517;48.400;11.770;2023-12-07T10:48:34;6.50;;;5.47;;
14849;SDS011;7517;48.400;11.770;2023-12-07T10:51:05;7.13;;;5.97;;
14849;SDS011;7517;48.400;11.770;2023-12-07T10:53:37;8.77;;;7.37;;
14849;SDS011;7517;48.400;11.770;2023-12-07T10:56:11;8.47;;;6.90;;
14849;SDS011;7517;48.400;11.770;2023-12-07T10:58:56;8.87;;;7.70;;
14849;SDS011;7517;48.400;11.770;2023-12-07T11:01:24;9.93;;;8.03;;
14849;SDS011;7517;48.400;11.770;2023-12-07T11:03:53;9.73;;;7.90;;
14849;SDS011;7517;48.400;11.770;2023-12-07T11:06:22;10.60;;;8.20;;
14849;SDS011;7517;48.400;11.770;2023-12-07T11:08:50;12.37;;;9.03;;
14849;SDS011;7517;48.400;11.770;2023-12-07T11:11:27;12.30;;;8.27;;
14849;SDS011;7517;48.400;11.770;2023-12-07T11:14:04;11.13;;;9.27;;
14849;SDS011;7517;48.400;11.770;2023-12-07T11:16:37;10.23;;;9.00;;
14849;SDS011;7517;48.400;11.770;2023-12-07T11:22:15;12.33;;;9.27;;
14849;SDS011;7517;48.400;11.770;2023-12-07T11:24:51;12.53;;;8.87;;
14849;SDS011;7517;48.400;11.770;2023-12-07T11:27:24;10.60;;;8.37;;
14849;SDS011;7517;48.400;11.770;2023-12-07T11:29:55;11.13;;;9.00;;
14849;SDS011;7517;48.400;11.770;2023-12-07T11:32:25;9.27;;;8.10;;
14849;SDS011;7517;48.400;11.770;2023-12-07T11:34:53;8.80;;;7.70;;
14849;SDS011;7517;48.400;11.770;2023-12-07T11:37:21;10.53;;;8.57;;
14849;SDS011;7517;48.400;11.770;2023-12-07T11:39:48;10.47;;;8.47;;
14849;SDS011;7517;48.400;11.770;2023-12-07T11:42:16;10.00;;;8.60;;
14849;SDS011;7517;48.400;11.770;2023-12-07T11:44:47;11.47;;;8.53;;
14849;SDS011;7517;48.400;11.770;2023-12-07T11:47:16;10.77;;;8.53;;
14849;SDS011;7517;48.400;11.770;2023-12-07T11:49:45;10.73;;;8.50;;
14849;SDS011;7517;48.400;11.770;2023-12-07T11:52:13;10.10;;;8.90;;
14849;SDS011;7517;48.400;11.770;2023-12-07T11:54:43;10.10;;;8.57;;
14849;SDS011;7517;48.400;11.770;2023-12-07T11:57:11;11.10;;;8.63;;
14849;SDS011;7517;48.400;11.770;2023-12-07T11:59:39;12.67;;;8.63;;
14849;SDS011;7517;48.400;11.770;2023-12-07T12:02:08;11.13;;;8.80;;
14849;SDS011;7517;48.400;11.770;2023-12-07T12:04:37;14.77;;;9.57;;
14849;SDS011;7517;48.400;11.770;2023-12-07T12:07:04;9.63;;;8.37;;
14849;SDS011;7517;48.400;11.770;2023-12-07T12:09:31;11.17;;;8.90;;
14849;SDS011;7517;48.400;11.770;2023-12-07T12:11:59;10.87;;;9.00;;
14849;SDS011;7517;48.400;11.770;2023-12-07T12:14:27;8.93;;;7.53;;
14849;SDS011;7517;48.400;11.770;2023-12-07T12:16:55;10.23;;;8.37;;
14849;SDS011;7517;48.400;11.770;2023-12-07T12:19:24;11.87;;;8.27;;
14849;SDS011;7517;48.400;11.770;2023-12-07T12:21:52;8.63;;;7.73;;
14849;SDS011;7517;48.400;11.770;2023-12-07T12:24:23;9.77;;;7.63;;
14849;SDS011;7517;48.400;11.770;2023-12-07T12:26:50;10.53;;;8.23;;
14849;SDS011;7517;48.400;11.770;2023-12-07T12:29:17;10.10;;;8.10;;
14849;SDS011;7517;48.400;11.770;2023-12-07T12:31:46;9.77;;;8.23;;
14849;SDS011;7517;48.400;11.770;2023-12-07T12:34:13;9.37;;;8.10;;
14849;SDS011;7517;48.400;11.770;2023-12-07T12:36:43;8.53;;;7.63;;
14849;SDS011;7517;48.400;11.770;2023-12-07T12:39:11;13.80;;;8.50;;
14849;SDS011;7517;48.400;11.770;2023-12-07T12:41:38;11.57;;;9.20;;
14849;SDS011;7517;48.400;11.770;2023-12-07T12:44:06;12.57;;;9.23;;
14849;SDS011;7517;48.400;11.770;2023-12-07T12:46:33;14.43;;;9.87;;
14849;SDS011;7517;48.400;11.770;2023-12-07T12:49:02;11.83;;;9.63;;
14849;SDS011;7517;48.400;11.770;2023-12-07T12:51:29;14.00;;;10.43;;
14849;SDS011;7517;48.400;11.770;2023-12-07T12:53:59;13.27;;;10.33;;
14849;SDS011;7517;48.400;11.770;2023-12-07T12:56:27;14.83;;;11.00;;
14849;SDS011;7517;48.400;11.770;2023-12-07T12:58:55;14.53;;;10.20;;
14849;SDS011;7517;48.400;11.770;2023-12-07T13:01:23;11.80;;;9.90;;
14849;SDS011;7517;48.400;11.770;2023-12-07T13:03:51;13.37;;;10.43;;
14849;SDS011;7517;48.400;11.770;2023-12-07T13:06:18;17.10;;;10.53;;
14849;SDS011;7517;48.400;11.770;2023-12-07T13:08:46;14.97;;;11.17;;
14849;SDS011;7517;48.400;11.770;2023-12-07T13:11:16;12.20;;;9.83;;
14849;SDS011;7517;48.400;11.770;2023-12-07T13:13:45;12.83;;;10.30;;
14849;SDS011;7517;48.400;11.770;2023-12-07T13:16:13;14.53;;;11.03;;
14849;SDS011;7517;48.400;11.770;2023-12-07T13:18:41;13.73;;;9.83;;
14849;SDS011;7517;48.400;11.770;2023-12-07T13:21:09;11.40;;;9.60;;
14849;SDS011;7517;48.400;11.770;2023-12-07T13:23:36;14.93;;;10.43;;
14849;SDS011;7517;48.400;11.770;2023-12-07T13:26:04;13.47;;;10.90;;
14849;SDS011;7517;48.400;11.770;2023-12-07T13:28:33;13.97;;;10.10;;
14849;SDS011;7517;48.400;11.770;2023-12-07T13:31:00;12.83;;;10.40;;
14849;SDS011;7517;48.400;11.770;2023-12-07T13:33:28;10.63;;;9.40;;
14849;SDS011;7517;48.400;11.770;2023-12-07T13:35:55;11.67;;;9.43;;
14849;SDS011;7517;48.400;11.770;2023-12-07T13:38:22;12.73;;;9.27;;
14849;SDS011;7517;48.400;11.770;2023-12-07T13:40:50;11.30;;;8.80;;
14849;SDS011;7517;48.400;11.770;2023-12-07T13:43:17;14.23;;;9.77;;
14849;SDS011;7517;48.400;11.770;2023-12-07T13:45:45;13.07;;;9.47;;
14849;SDS011;7517;48.400;11.770;2023-12-07T13:48:13;13.53;;;10.37;;
14849;SDS011;7517;48.400;11.770;2023-12-07T13:50:40;12.23;;;9.40;;
14849;SDS011;7517;48.400;11.770;2023-12-07T13:53:09;11.77;;;9.30;;
14849;SDS011;7517;48.400;11.770;2023-12-07T13:55:37;12.07;;;9.17;;
14849;SDS011;7517;48.400;11.770;2023-12-07T13:58:04;11.77;;;10.07;;
14849;SDS011;7517;48.400;11.770;2023-12-07T14:00:32;12.97;;;10.07;;
14849;SDS011;7517;48.400;11.770;2023-12-07T14:03:02;11.53;;;9.33;;
14849;SDS011;7517;48.400;11.770;2023-12-07T14:05:30;11.37;;;9.20;;
14849;SDS011;7517;48.400;11.770;2023-12-07T14:07:57;11.73;;;9.27;;
14849;SDS011;7517;48.400;11.770;2023-12-07T14:10:24;11.00;;;9.60;;
14849;SDS011;7517;48.400;11.770;2023-12-07T14:12:52;12.50;;;9.97;;
14849;SDS011;7517;48.400;11.770;2023-12-07T14:15:19;12.07;;;9.43;;
14849;SDS011;7517;48.400;11.770;2023-12-07T14:17:47;11.70;;;8.93;;
14849;SDS011;7517;48.400;11.770;2023-12-07T14:20:16;13.03;;;9.67;;
14849;SDS011;7517;48.400;11.770;2023-12-07T14:22:45;11.23;;;9.40;;
14849;SDS011;7517;48.400;11.770;2023-12-07T14:25:33;10.90;;;8.93;;
14849;SDS011;7517;48.400;11.770;2023-12-07T14:28:00;12.00;;;9.87;;
14849;SDS011;7517;48.400;11.770;2023-12-07T14:30:28;11.10;;;8.60;;
14849;SDS011;7517;48.400;11.770;2023-12-07T14:32:56;11.87;;;8.80;;
14849;SDS011;7517;48.400;11.770;2023-12-07T14:35:25;10.90;;;8.37;;
14849;SDS011;7517;48.400;11.770;2023-12-07T14:38:14;9.80;;;8.20;;
14849;SDS011;7517;48.400;11.770;2023-12-07T14:40:41;11.20;;;8.70;;
14849;SDS011;7517;48.400;11.770;2023-12-07T14:43:09;11.07;;;8.67;;
14849;SDS011;7517;48.400;11.770;2023-12-07T14:45:36;11.47;;;8.03;;